Flight Track Log - Related Links

Times and Time Zones

All times are in EDT time to prevent confusion due to time zone crossing. See the VEC5204 flight status page for this flight to view local times or setup timezone preferences in your user account.


Time Position Orientation Groundspeed Altitude Reporting Facility
EDT Latitude Longitude Course Direction KTS MPH feet Rate Location/Type
Mon 12:26:00 PM 10.1526 -67.9299 334° Northwest  Level FlightAware Approximate
Mon 12:27:00 PM 10.2110 -67.9593 334° Northwest  Level FlightAware Approximate
Mon 12:28:00 PM 10.2693 -67.9888 334° Northwest  Level FlightAware Approximate
Mon 12:29:00 PM 10.3276 -68.0183 334° Northwest  Level FlightAware Approximate
Mon 12:30:00 PM 10.3859 -68.0478 334° Northwest  Level FlightAware Approximate
Mon 12:31:00 PM 10.4443 -68.0773 334° Northwest  Level FlightAware Approximate
Mon 12:32:00 PM 10.5026 -68.1068 334° Northwest  Level FlightAware Approximate
Mon 12:33:00 PM 10.5557 -68.1452 333° Northwest  Level Estimated
Mon 12:34:00 PM 10.6140 -68.1746 334° Northwest  Level FlightAware Approximate
Mon 12:35:00 PM 10.6724 -68.2041 334° Northwest  Level FlightAware Approximate
Mon 12:36:00 PM 10.7307 -68.2335 334° Northwest  Level FlightAware Approximate
Mon 12:37:00 PM 10.7891 -68.2630 334° Northwest  Level FlightAware Approximate
Mon 12:38:00 PM 10.8474 -68.2925 334° Northwest  Level FlightAware Approximate
Mon 12:39:00 PM 10.9058 -68.3220 334° Northwest  Level FlightAware Approximate
Mon 12:40:00 PM 10.9641 -68.3515 334° Northwest  Level FlightAware Approximate
Mon 12:41:00 PM 11.0224 -68.3810 334° Northwest  Level FlightAware Approximate
Mon 12:42:00 PM 11.0808 -68.4106 334° Northwest  Level FlightAware Approximate
Mon 12:43:00 PM 11.1391 -68.4401 334° Northwest  Level FlightAware Approximate
Mon 12:44:00 PM 11.1974 -68.4697 334° Northwest  Level FlightAware Approximate
Mon 12:45:00 PM 11.2557 -68.4992 334° Northwest  Level FlightAware Approximate
Mon 12:46:00 PM 11.3141 -68.5288 334° Northwest  Level FlightAware Approximate
Mon 12:47:00 PM 11.3668 -68.5677 314° West  Level Estimated
Mon 12:48:00 PM 11.4238 -68.6000 331° Northwest  Level FlightAware Approximate
Mon 12:49:00 PM 11.4808 -68.6322 331° Northwest  Level FlightAware Approximate
Mon 12:50:00 PM 11.5377 -68.6645 331° Northwest  Level FlightAware Approximate
Mon 12:51:00 PM 11.5947 -68.6967 331° Northwest  Level FlightAware Approximate
Mon 12:52:00 PM 11.6516 -68.7290 331° Northwest  Level FlightAware Approximate
Mon 12:53:00 PM 11.7086 -68.7613 331° Northwest  Level FlightAware Approximate
Mon 12:54:00 PM 11.7655 -68.7936 331° Northwest  Level FlightAware Approximate
Mon 12:55:00 PM 11.8225 -68.8259 331° Northwest  Level FlightAware Approximate
Mon 12:56:00 PM 11.8794 -68.8583 331° Northwest  Level FlightAware Approximate
Mon 12:57:00 PM 11.9363 -68.8906 331° Northwest  Level FlightAware Approximate
Mon 12:58:00 PM 11.9932 -68.9230 331° Northwest  Level FlightAware Approximate
Mon 12:59:00 PM 12.0502 -68.9553 331° Northwest  Level FlightAware Approximate
Mon 01:00:00 PM 12.1071 -68.9877 331° Northwest  Level FlightAware Approximate
Mon 01:01:00 PM 12.1640 -69.0201 331° Northwest  Level FlightAware Approximate
Mon 01:02:00 PM 12.2209 -69.0525 331° Northwest  Level FlightAware Approximate
Mon 01:03:00 PM 12.2778 -69.0850 331° Northwest  Level FlightAware Approximate
Mon 01:04:00 PM 12.3347 -69.1174 331° Northwest  Level FlightAware Approximate
Mon 01:05:00 PM 12.3916 -69.1499 331° Northwest  Level FlightAware Approximate
Mon 01:06:00 PM 12.4485 -69.1823 331° Northwest  Level FlightAware Approximate
Mon 01:07:00 PM 12.5054 -69.2148 331° Northwest  Level FlightAware Approximate
Mon 01:07:18 PM 19.3431 -72.7717 331° Northwest 478 550 38,000  Level Miami Center
Mon 01:08:00 PM 12.5623 -69.2473 331° Northwest  Level FlightAware Approximate
Mon 01:08:18 PM 19.4569 -72.8300 334° Northwest 463 533 38,000  Level Miami Center
Mon 01:09:00 PM 12.6192 -69.2798 331° Northwest  Level FlightAware Approximate
Mon 01:09:18 PM 19.5764 -72.8550 349° North 451 519 38,000  Level Miami Center
Mon 01:10:00 PM 12.6761 -69.3124 331° Northwest  Level FlightAware Approximate
Mon 01:10:18 PM 19.7031 -72.8361 North 437 503 38,000  Level Miami Center
Mon 01:11:00 PM 12.7330 -69.3449 331° Northwest  Level FlightAware Approximate
Mon 01:11:18 PM 19.8297 -72.8103 11° North 449 517 38,000  Level Miami Center
Mon 01:12:00 PM 12.7898 -69.3775 331° Northwest  Level FlightAware Approximate
Mon 01:12:18 PM 19.9392 -72.8492 342° North 420 483 38,000  Level Miami Center
Mon 01:13:18 PM 20.0125 -72.9528 307° West 402 463 38,000  Level Miami Center
Mon 01:14:18 PM 20.0675 -73.0683 297° West 414 476 38,000  Level Miami Center
Mon 01:15:18 PM 20.1203 -73.1794 297° West 420 483 38,000  Level Miami Center
Mon 01:16:18 PM 20.2161 -73.2608 321° Northwest 426 490 38,000  Level Miami Center
Mon 01:17:18 PM 20.3281 -73.3222 333° Northwest 426 490 38,000  Level Miami Center
Mon 01:18:18 PM 20.4336 -73.3814 332° Northwest 432 497 38,000  Level Miami Center
Mon 01:19:18 PM 20.5494 -73.4317 338° Northwest 432 497 38,000  Level Miami Center
Mon 01:20:18 PM 20.6772 -73.4483 353° North 441 507 38,000  Level Miami Center
Mon 01:21:18 PM 20.7983 -73.4631 354° North 441 507 38,000  Level Miami Center
Mon 01:22:18 PM 20.9242 -73.4822 352° North 449 517 38,000  Level Miami Center
Mon 01:23:18 PM 21.0414 -73.5014 351° North 442 509 38,000  Level Miami Center
Mon 01:24:18 PM 21.1592 -73.5497 339° North 442 509 38,000  Level Miami Center
Mon 01:25:18 PM 21.2467 -73.6344 318° Northwest 422 486 38,000  Level Miami Center
Mon 01:26:18 PM 21.3361 -73.7258 316° Northwest 432 497 38,000  Level Miami Center
Mon 01:27:18 PM 21.4092 -73.8289 307° West 432 497 38,000  Level Miami Center
Mon 01:28:18 PM 21.4761 -73.9344 304° West 438 504 38,000  Level Miami Center
Mon 01:29:18 PM 21.5514 -74.0578 303° West 447 514 38,000  Level Miami Center
Mon 01:30:18 PM 21.6203 -74.1658 304° West 447 514 38,000  Level Miami Center
Mon 01:31:18 PM 21.6867 -74.2717 304° West 447 514 38,000  Level Miami Center
Mon 01:32:18 PM 21.7406 -74.3756 299° West 447 514 38,000  Level Miami Center
Mon 01:33:18 PM 21.8111 -74.4794 306° West 442 509 38,000  Level Miami Center
Mon 01:34:18 PM 21.8756 -74.5878 303° West 442 509 38,000  Level Miami Center
Mon 01:35:18 PM 21.9483 -74.7053 304° West 436 502 38,000  Level Miami Center
Mon 01:36:18 PM 22.0144 -74.8117 304° West 431 496 38,000  Level Miami Center
Mon 01:37:18 PM 22.0828 -74.9183 305° West 437 503 38,000  Level Miami Center
Mon 01:38:18 PM 22.1489 -75.0250 304° West 437 503 38,000  Level Miami Center
Mon 01:39:18 PM 22.2272 -75.1247 310° West 437 503 38,000  Level Miami Center
Mon 01:40:18 PM 22.3056 -75.2158 313° West 431 496 38,000  Level Miami Center
Mon 01:41:18 PM 22.3881 -75.3114 313° West 431 496 38,000  Level Miami Center
Mon 01:42:18 PM 22.4703 -75.4047 314° West 431 496 38,000  Level Miami Center
Mon 01:43:18 PM 22.5506 -75.4983 313° West 431 496 38,000  Level Miami Center
Mon 01:44:18 PM 22.6289 -75.5897 313° West 431 496 38,000  Level Miami Center
Mon 01:45:18 PM 22.7089 -75.6833 313° West 431 496 38,000  Level Miami Center
Mon 01:46:18 PM 22.7911 -75.7772 314° West 431 496 38,000  Level Miami Center
Mon 01:47:18 PM 22.8669 -75.8692 312° West 426 490 38,000  Level Miami Center
Mon 01:48:18 PM 22.9489 -75.9611 314° West 421 484 38,000  Level Miami Center
Mon 01:49:18 PM 23.0247 -76.0508 313° West 411 473 38,000  Level Miami Center
Mon 01:50:18 PM 23.1047 -76.1450 313° West 411 473 38,000  Level Miami Center
Mon 01:51:18 PM 23.1822 -76.2350 313° West 411 473 38,000  Level Miami Center
Mon 01:52:18 PM 23.2622 -76.3275 313° West 411 473 38,000  Level Miami Center
Mon 01:53:18 PM 23.3314 -76.4086 313° West 411 473 38,000  Level Miami Center
Mon 01:54:18 PM 23.4111 -76.5033 313° West 411 473 38,000  Level Miami Center
Mon 01:55:18 PM 23.4864 -76.5939 312° West 411 473 38,000  Level Miami Center
Mon 01:56:18 PM 23.5661 -76.6867 313° West 411 473 38,000  Level Miami Center
Mon 01:57:18 PM 23.6433 -76.7794 312° West 411 473 38,000  Level Miami Center
Mon 01:58:18 PM 23.7186 -76.8703 312° West 411 473 38,000  Level Miami Center
Mon 01:59:18 PM 23.7981 -76.9633 313° West 411 473 38,000  Level Miami Center
Mon 02:00:18 PM 23.8753 -77.0567 312° West 411 473 38,000  Level Miami Center
Mon 02:01:18 PM 23.9586 -77.1522 314° West 404 465 38,000  Level Miami Center
Mon 02:02:18 PM 24.0336 -77.2481 311° West 414 476 38,000  Level Miami Center
Mon 02:03:18 PM 24.1108 -77.3392 313° West 409 471 38,000  Level Miami Center
Mon 02:04:18 PM 24.1753 -77.4375 306° West 409 471 38,000  Level Miami Center
Mon 02:05:18 PM 24.2375 -77.5472 302° West 409 471 38,000  Level Miami Center
Mon 02:06:18 PM 24.3186 -77.6342 316° Northwest 409 471 38,000  Level Miami Center
Mon 02:07:18 PM 24.3997 -77.7214 316° Northwest 409 471 38,000  Level Miami Center
Mon 02:08:18 PM 24.4806 -77.8089 315° West 409 471 38,000  Level Miami Center
Mon 02:09:18 PM 24.5614 -77.8986 315° West 409 471 38,000  Level Miami Center
Mon 02:10:18 PM 24.6444 -77.9883 316° Northwest 409 471 38,000  Level Miami Center
Mon 02:11:18 PM 24.7064 -78.0919 303° West 409 471 38,000 -150 Level Miami Center
Mon 02:12:18 PM 24.7556 -78.2067 295° West 409 471 37,700 -700 Descending Miami Center
Mon 02:13:18 PM 24.8044 -78.3217 295° West 409 471 36,600 -1,200 Descending Miami Center
Mon 02:14:18 PM 24.8536 -78.4392 295° West 421 484 35,300 -1,200 Descending Miami Center
Mon 02:15:18 PM 24.9003 -78.5450 296° West 421 484 34,200 -1,650 Descending Miami Center
Mon 02:16:18 PM 24.9511 -78.6694 294° West 432 497 32,000 1,900 Descending Miami Center
Mon 02:17:18 PM 25.0081 -78.8056 295° West 443 510 38,000 -1,250 Climbing Miami Center
Mon 02:18:18 PM 25.0525 -78.9189 293° West 443 510 29,500 -5,150 Descending Miami Center
Mon 02:19:18 PM 25.1072 -79.0344 298° West 438 504 27,700 -2,200 Descending Miami Center
Mon 02:20:18 PM 25.1575 -79.1547 295° West 438 504 25,100 -2,600 Descending Miami Center
Mon 02:21:18 PM 25.2039 -79.2703 294° West 426 490 22,500 -2,650 Descending Miami Center
Mon 02:22:18 PM 25.2519 -79.3861 295° West 421 484 19,800 -2,741 Descending Miami Center
Mon 02:23:14 PM 25.2939 -79.4997 292° West 393 452 17,200 -2,600 Descending Miami Center
Mon 02:24:18 PM 25.3400 -79.6042 296° West 399 459 14,600 -2,564 Descending Miami Center
Mon 02:25:04 PM 25.3739 -79.6969 292° West 375 432 12,500 -1,458 Descending Miami Center
Mon 02:26:05 PM 25.4264 -79.7878 303° West 342 394 12,000 -310 Descending Miami Center
Mon 02:27:00 PM 25.4792 -79.8628 308° West 346 398 11,900 -359 Descending Miami Center
Mon 02:28:02 PM 25.5397 -79.9608 304° West 345 397 11,300 -878 Descending Miami Center
Mon 02:29:03 PM 25.5944 -80.0406 307° West 336 387 10,100 -1,512 Descending Miami Center
Mon 02:30:05 PM 25.6408 -80.1133 305° West 282 325 8,200 -1,033 Descending Miami Center
Mon 02:31:05 PM 25.6833 -80.1789 306° West 243 280 8,000 -135 Descending Miami Center
Mon 02:32:18 PM 25.7044 -80.2581 287° West 252 290 7,900 -683 Descending Miami Center
Mon 02:33:08 PM 25.7028 -80.3317 269° West 244 281 6,600 -1,538 Descending Miami Center
Mon 02:34:15 PM 25.6967 -80.4144 265° West 246 283 4,900 -1,209 Descending Miami Center
Mon 02:35:17 PM 25.6906 -80.4928 265° West 240 276 4,000 -439 Descending Miami Center
Mon 02:36:18 PM 25.6847 -80.5594 264° West 203 234 4,000 -310 Level Miami Center
Mon 02:37:13 PM 25.7086 -80.6108 297° West 203 234 3,400 -517 Descending Miami Center
Mon 02:38:14 PM 25.7583 -80.6217 349° North 189 217 3,000 -195 Descending Miami Center
Mon 02:39:16 PM 25.7722 -80.5667 74° East 183 211 3,000  Level Miami Center
Mon 02:40:17 PM 25.7756 -80.5136 86° East 173 199 3,000 -295 Level Miami Center
Mon 02:41:18 PM 25.7792 -80.4586 86° East 172 198 2,400 -689 Descending Miami Center
Mon 02:42:19 PM 25.7803 -80.4078 89° East 163 188 1,600 -724 Descending Miami Center
Mon 02:43:14 PM 25.7792 -80.3731 92° East 122 140 1,000 -564 Descending Miami Center
Mon 02:44:16 PM 25.7819 -80.3386 85° East 100 115 500 -484 Descending Miami Center

Login

Don't have an account? Register now (free) for customized features, flight alerts, and more!